createdAt,value
2023-03-07T00:01:30.592Z,29.90
2023-03-07T00:04:00.653Z,32.20
2023-03-07T00:06:31.785Z,32.00
2023-03-07T00:09:03.027Z,33.30
2023-03-07T00:11:31.630Z,30.70
2023-03-07T00:14:11.203Z,31.10
2023-03-07T00:16:39.925Z,28.70
2023-03-07T00:19:09.931Z,26.00
2023-03-07T00:21:39.025Z,24.20
2023-03-07T00:24:10.382Z,26.60
2023-03-07T00:26:39.268Z,28.80
2023-03-07T00:29:09.698Z,26.10
2023-03-07T00:31:39.004Z,26.70
2023-03-07T00:34:07.527Z,25.90
2023-03-07T00:36:36.244Z,25.70
2023-03-07T00:39:08.232Z,27.50
2023-03-07T00:41:39.164Z,29.30
2023-03-07T00:44:07.729Z,27.90
2023-03-07T00:46:38.689Z,28.70
2023-03-07T00:49:07.746Z,31.30
2023-03-07T00:51:36.022Z,28.20
2023-03-07T00:54:05.337Z,29.90
2023-03-07T00:56:34.824Z,32.00
2023-03-07T00:59:03.953Z,31.00
2023-03-07T01:01:32.525Z,35.50
2023-03-07T01:04:01.542Z,34.30
2023-03-07T01:06:33.361Z,36.50
2023-03-07T01:09:06.866Z,35.90
2023-03-07T01:11:37.791Z,37.80
2023-03-07T01:14:06.965Z,35.80
2023-03-07T01:16:38.701Z,36.10
2023-03-07T01:19:12.520Z,36.90
2023-03-07T01:21:43.323Z,37.40
2023-03-07T01:24:15.168Z,36.30
2023-03-07T01:26:44.230Z,34.60
2023-03-07T01:29:15.773Z,34.40
2023-03-07T01:31:44.334Z,38.50
2023-03-07T01:34:12.784Z,35.80
2023-03-07T01:36:43.023Z,31.20
2023-03-07T01:39:17.275Z,30.60
2023-03-07T01:42:12.111Z,30.20
2023-03-07T01:45:10.820Z,29.30
2023-03-07T01:47:49.418Z,28.80
2023-03-07T01:50:18.635Z,30.60
2023-03-07T01:53:00.123Z,31.00
2023-03-07T01:55:34.736Z,30.10
2023-03-07T01:58:14.561Z,30.60
2023-03-07T02:00:44.891Z,32.00
2023-03-07T02:03:37.258Z,30.70
2023-03-07T02:06:21.103Z,30.30
2023-03-07T02:08:51.330Z,31.90
2023-03-07T02:11:24.712Z,33.50
2023-03-07T02:13:56.363Z,32.80
2023-03-07T02:16:25.633Z,31.90
2023-03-07T02:18:55.380Z,39.90
2023-03-07T02:21:54.781Z,36.80
2023-03-07T02:24:49.778Z,39.70
2023-03-07T02:27:18.574Z,41.10
2023-03-07T02:29:47.044Z,40.20
2023-03-07T02:32:17.265Z,41.50
2023-03-07T02:34:48.797Z,40.40
2023-03-07T02:37:32.937Z,42.30
2023-03-07T02:40:09.112Z,43.50
2023-03-07T02:42:42.285Z,46.40
2023-03-07T02:45:18.593Z,43.10
2023-03-07T02:47:47.643Z,47.00
2023-03-07T02:50:18.330Z,46.40
2023-03-07T02:52:50.000Z,43.80
2023-03-07T02:55:18.875Z,44.80
2023-03-07T02:57:54.523Z,46.60
2023-03-07T03:00:23.623Z,45.00
2023-03-07T03:03:08.377Z,47.20
2023-03-07T03:05:40.535Z,50.00
2023-03-07T03:08:09.314Z,50.10
2023-03-07T03:10:38.523Z,47.00
2023-03-07T03:13:10.970Z,52.90
2023-03-07T03:15:40.014Z,50.00
2023-03-07T03:18:08.706Z,48.70
2023-03-07T03:20:40.619Z,49.90
2023-03-07T03:23:10.800Z,45.30
2023-03-07T03:25:40.254Z,48.20
2023-03-07T03:28:10.114Z,47.50
2023-03-07T03:30:39.914Z,48.00
2023-03-07T03:33:08.696Z,50.00
2023-03-07T03:35:39.590Z,42.90
2023-03-07T03:38:08.527Z,42.00
2023-03-07T03:40:38.939Z,37.90
2023-03-07T03:43:07.635Z,37.70
2023-03-07T03:45:37.944Z,40.10
2023-03-07T03:48:07.999Z,38.90
2023-03-07T03:50:38.814Z,40.40
2023-03-07T03:53:07.205Z,42.10
2023-03-07T03:55:35.567Z,42.20
2023-03-07T03:58:04.244Z,42.70
2023-03-07T04:00:34.005Z,42.30
2023-03-07T04:03:03.038Z,42.60
2023-03-07T04:05:34.805Z,44.30
2023-03-07T04:08:03.515Z,44.60
2023-03-07T04:10:32.593Z,45.60
2023-03-07T04:13:01.176Z,44.40
2023-03-07T04:15:30.185Z,44.10
2023-03-07T04:17:59.278Z,43.30
2023-03-07T04:20:27.831Z,42.70
2023-03-07T04:22:56.525Z,42.50
2023-03-07T04:25:25.620Z,47.00
2023-03-07T04:27:56.764Z,45.10
2023-03-07T04:30:25.964Z,48.00
2023-03-07T04:32:55.161Z,110.80
2023-03-07T04:35:23.849Z,94.50
2023-03-07T04:37:53.473Z,125.30
2023-03-07T04:40:22.055Z,86.00
2023-03-07T04:42:50.725Z,205.10
2023-03-07T04:45:21.047Z,118.50
2023-03-07T04:47:49.935Z,78.30
2023-03-07T04:50:20.462Z,57.80
2023-03-07T04:52:50.267Z,58.40
2023-03-07T04:55:19.685Z,61.70
2023-03-07T04:57:51.018Z,58.10
2023-03-07T05:00:20.624Z,63.00
2023-03-07T05:02:50.757Z,58.30
2023-03-07T05:05:22.737Z,62.80
2023-03-07T05:07:51.813Z,58.30
2023-03-07T05:10:21.382Z,61.80
2023-03-07T05:12:51.124Z,56.60
2023-03-07T05:15:19.794Z,53.60
2023-03-07T05:17:48.514Z,56.90
2023-03-07T05:20:17.274Z,65.90
2023-03-07T05:22:46.462Z,60.80
2023-03-07T05:25:18.233Z,56.90
2023-03-07T05:27:47.444Z,57.30
2023-03-07T05:30:16.645Z,54.60
2023-03-07T05:32:47.393Z,50.50
2023-03-07T05:35:23.908Z,49.50
2023-03-07T05:37:53.951Z,49.70
2023-03-07T05:40:22.640Z,58.80
2023-03-07T05:42:51.870Z,57.90
2023-03-07T05:45:22.290Z,56.80
2023-03-07T05:47:56.182Z,61.30
2023-03-07T05:53:19.698Z,59.00
2023-03-07T05:55:56.624Z,57.90
2023-03-07T05:58:33.738Z,60.40
2023-03-07T06:01:19.471Z,57.60
2023-03-07T06:03:51.529Z,66.30
2023-03-07T06:06:33.592Z,57.30
2023-03-07T06:09:11.983Z,54.60
2023-03-07T06:11:43.945Z,58.60
2023-03-07T06:14:12.962Z,61.60
2023-03-07T06:16:47.239Z,67.40
2023-03-07T06:19:20.436Z,58.10
2023-03-07T06:21:56.062Z,67.70
2023-03-07T06:24:25.076Z,56.20
2023-03-07T06:26:55.399Z,47.70
2023-03-07T06:29:27.465Z,50.10
2023-03-07T06:32:00.061Z,49.10
2023-03-07T06:34:28.924Z,55.80
2023-03-07T06:36:59.652Z,55.40
2023-03-07T06:39:31.513Z,52.00
2023-03-07T06:42:07.289Z,49.20
2023-03-07T06:44:36.566Z,53.30
2023-03-07T06:47:05.474Z,54.90
2023-03-07T06:49:48.298Z,50.50
2023-03-07T06:52:17.580Z,49.00
2023-03-07T06:54:51.692Z,51.20
2023-03-07T06:57:25.612Z,50.80
2023-03-07T06:59:58.701Z,47.90
2023-03-07T07:02:37.748Z,56.10
2023-03-07T07:05:10.301Z,56.10
2023-03-07T07:07:46.358Z,54.90
2023-03-07T07:10:18.409Z,55.30
2023-03-07T07:12:47.510Z,64.50
2023-03-07T07:15:21.221Z,77.00
2023-03-07T07:17:51.575Z,75.00
2023-03-07T07:20:21.058Z,69.10
2023-03-07T07:22:52.597Z,86.90
2023-03-07T07:25:21.776Z,71.10
2023-03-07T07:27:58.574Z,61.10
2023-03-07T07:30:27.656Z,58.60
2023-03-07T07:33:01.416Z,61.70
2023-03-07T07:35:37.152Z,60.90
2023-03-07T07:38:11.626Z,57.30
2023-03-07T07:40:44.931Z,55.20
2023-03-07T07:43:18.234Z,59.90
2023-03-07T07:45:51.151Z,59.10
2023-03-07T07:48:24.613Z,61.70
2023-03-07T07:51:03.753Z,59.40
2023-03-07T07:53:37.842Z,63.10
2023-03-07T07:56:09.906Z,61.50
2023-03-07T07:58:44.740Z,57.10
2023-03-07T08:03:48.028Z,61.40
2023-03-07T08:06:31.072Z,60.50
2023-03-07T08:11:36.954Z,73.00
2023-03-07T08:14:05.733Z,59.90
2023-03-07T08:16:39.327Z,61.20
2023-03-07T08:19:09.930Z,57.50
2023-03-07T08:21:46.165Z,65.90
2023-03-07T08:24:18.334Z,83.50
2023-03-07T08:26:48.625Z,56.30
2023-03-07T08:29:19.949Z,49.40
2023-03-07T08:31:51.503Z,54.50
2023-03-07T08:34:21.027Z,52.90
2023-03-07T08:39:26.487Z,59.40
2023-03-07T08:41:56.504Z,52.20
2023-03-07T08:44:27.549Z,54.50
2023-03-07T08:47:04.487Z,52.10
2023-03-07T08:49:36.493Z,53.40
2023-03-07T08:52:05.888Z,52.30
2023-03-07T08:54:37.179Z,53.40
2023-03-07T08:57:08.531Z,55.80
2023-03-07T08:59:43.494Z,54.10
2023-03-07T09:02:12.292Z,52.60
2023-03-07T09:04:42.015Z,57.50
2023-03-07T09:07:18.991Z,53.80
2023-03-07T09:09:52.948Z,49.50
2023-03-07T09:12:24.973Z,51.60
2023-03-07T09:14:54.973Z,50.40
2023-03-07T09:17:31.593Z,53.80
2023-03-07T09:20:10.853Z,51.90
2023-03-07T09:22:42.492Z,47.40
2023-03-07T09:25:11.782Z,49.50
2023-03-07T09:27:45.361Z,47.20
2023-03-07T09:30:15.347Z,41.10
2023-03-07T09:32:46.272Z,41.20
2023-03-07T09:35:15.879Z,40.70
2023-03-07T09:37:44.973Z,32.60
2023-03-07T09:40:25.501Z,32.90
2023-03-07T09:43:23.060Z,34.70
2023-03-07T09:46:54.644Z,35.60
2023-03-07T09:49:51.151Z,30.00
2023-03-07T09:52:41.193Z,31.70
2023-03-07T09:55:17.629Z,33.70
2023-03-07T09:58:06.241Z,33.00
2023-03-07T10:00:45.647Z,27.80
2023-03-07T10:03:40.500Z,28.80
2023-03-07T10:06:39.408Z,27.80
2023-03-07T10:09:26.566Z,28.80
2023-03-07T10:12:31.807Z,32.30
2023-03-07T10:15:30.307Z,27.50
2023-03-07T10:18:28.794Z,26.80
2023-03-07T10:21:39.033Z,24.60
2023-03-07T10:24:56.838Z,24.80
2023-03-07T10:27:38.321Z,25.30
2023-03-07T10:30:17.658Z,24.00
2023-03-07T10:33:01.327Z,24.80
2023-03-07T10:35:42.822Z,25.50
2023-03-07T10:38:34.358Z,24.20
2023-03-07T10:41:17.127Z,23.70
2023-03-07T10:43:52.395Z,20.50
2023-03-07T10:46:29.556Z,21.70
2023-03-07T10:49:09.801Z,24.90
2023-03-07T10:52:37.071Z,24.80
2023-03-07T10:55:42.174Z,23.90
2023-03-07T10:58:25.861Z,21.60
2023-03-07T11:01:07.864Z,24.30
2023-03-07T11:03:58.697Z,23.80
2023-03-07T11:06:38.619Z,25.70
2023-03-07T11:09:25.284Z,26.20
2023-03-07T11:12:19.864Z,23.30
2023-03-07T11:15:22.745Z,35.70
2023-03-07T11:17:52.402Z,29.50
2023-03-07T11:20:24.026Z,25.30
2023-03-07T11:23:31.667Z,24.50
2023-03-07T11:26:24.713Z,24.40
2023-03-07T11:29:11.902Z,23.10
2023-03-07T11:32:02.408Z,24.90
2023-03-07T11:35:01.923Z,23.00
2023-03-07T11:38:16.340Z,19.90
2023-03-07T11:41:40.646Z,20.60
2023-03-07T11:45:09.826Z,19.70
2023-03-07T11:48:14.373Z,27.50
2023-03-07T11:50:53.412Z,24.20
2023-03-07T11:54:02.635Z,23.10
2023-03-07T11:56:38.158Z,37.60
2023-03-07T11:59:36.967Z,26.00
2023-03-07T12:02:46.280Z,24.00
2023-03-07T12:05:58.554Z,23.50
2023-03-07T12:08:56.020Z,26.00
2023-03-07T12:11:59.729Z,26.70
2023-03-07T12:14:30.857Z,26.00
2023-03-07T12:17:22.158Z,33.70
2023-03-07T12:20:28.949Z,39.50
2023-03-07T12:23:24.346Z,28.40
2023-03-07T12:26:03.534Z,30.90
2023-03-07T12:28:52.607Z,25.30
2023-03-07T12:31:36.209Z,23.20
2023-03-07T12:34:13.977Z,24.60
2023-03-07T12:37:07.000Z,25.20
2023-03-07T12:39:45.266Z,26.30
2023-03-07T12:42:44.815Z,24.60
2023-03-07T12:45:31.491Z,24.90
2023-03-07T12:48:26.137Z,25.40
2023-03-07T12:51:41.901Z,22.70
2023-03-07T12:54:53.587Z,20.80
2023-03-07T12:57:59.220Z,36.90
2023-03-07T13:01:07.286Z,21.80
2023-03-07T13:04:23.468Z,19.20
2023-03-07T13:07:34.612Z,21.30
2023-03-07T13:10:09.160Z,27.10
2023-03-07T13:12:41.193Z,21.90
2023-03-07T13:15:28.547Z,21.20
2023-03-07T13:18:37.768Z,19.50
2023-03-07T13:21:41.143Z,21.80
2023-03-07T13:24:40.146Z,23.80
2023-03-07T13:27:56.972Z,25.50
2023-03-07T13:30:37.493Z,32.10
2023-03-07T13:33:40.617Z,24.70
2023-03-07T13:36:51.647Z,19.60
2023-03-07T13:40:02.589Z,19.60
2023-03-07T13:42:52.500Z,15.20
2023-03-07T13:46:10.929Z,20.40
2023-03-07T13:49:02.041Z,24.30
2023-03-07T13:51:34.540Z,21.60
2023-03-07T13:54:13.806Z,23.50
2023-03-07T13:56:46.061Z,25.30
2023-03-07T13:59:27.495Z,15.80
2023-03-07T14:02:03.976Z,15.20
2023-03-07T14:04:53.910Z,18.50
2023-03-07T14:07:26.325Z,16.40
2023-03-07T14:10:19.538Z,15.70
2023-03-07T14:13:29.860Z,17.90
2023-03-07T14:16:07.713Z,18.40
2023-03-07T14:18:54.123Z,18.00
2023-03-07T14:22:08.566Z,17.70
2023-03-07T14:25:04.875Z,17.70
2023-03-07T14:28:00.348Z,14.20
2023-03-07T14:30:34.016Z,13.50
2023-03-07T14:33:03.640Z,15.30
2023-03-07T14:35:47.724Z,18.60
2023-03-07T14:38:36.530Z,16.60
2023-03-07T14:41:45.769Z,20.70
2023-03-07T14:44:40.596Z,16.20
2023-03-07T14:47:39.769Z,19.80
2023-03-07T14:51:00.235Z,17.40
2023-03-07T14:53:55.864Z,21.10
2023-03-07T14:56:34.953Z,21.20
2023-03-07T14:59:25.892Z,18.80
2023-03-07T15:01:59.755Z,19.60
2023-03-07T15:04:45.022Z,16.20
2023-03-07T15:07:25.045Z,13.30
2023-03-07T15:09:55.387Z,13.80
2023-03-07T15:12:34.664Z,14.00
2023-03-07T15:15:07.553Z,13.40
2023-03-07T15:17:44.876Z,11.90
2023-03-07T15:20:25.837Z,12.60
2023-03-07T15:23:08.591Z,14.20
2023-03-07T15:25:47.992Z,16.40
2023-03-07T15:28:28.505Z,16.40
2023-03-07T15:31:02.460Z,19.50
2023-03-07T15:33:39.287Z,16.20
2023-03-07T15:36:15.581Z,18.60
2023-03-07T15:38:52.590Z,15.80
2023-03-07T15:44:32.706Z,20.60
2023-03-07T15:47:26.461Z,18.70
2023-03-07T15:50:35.690Z,16.90
2023-03-07T15:53:30.940Z,14.80
2023-03-07T16:00:30.300Z,14.60
2023-03-07T16:03:42.767Z,17.40
2023-03-07T16:06:47.536Z,16.50
2023-03-07T16:09:48.706Z,16.80
2023-03-07T16:12:53.661Z,11.80
2023-03-07T16:15:43.390Z,14.60
2023-03-07T16:18:47.683Z,11.80
2023-03-07T16:21:27.784Z,16.00
2023-03-07T16:24:04.263Z,16.10
2023-03-07T16:26:36.018Z,14.90
2023-03-07T16:32:18.398Z,12.20
2023-03-07T16:35:04.339Z,14.50
2023-03-07T16:37:50.682Z,14.80
2023-03-07T16:40:26.095Z,12.50
2023-03-07T16:43:09.898Z,13.80
2023-03-07T16:46:00.530Z,16.40
2023-03-07T16:48:48.690Z,15.00
2023-03-07T16:54:08.636Z,19.50
2023-03-07T16:56:48.997Z,20.20
2023-03-07T16:59:35.529Z,17.90
2023-03-07T17:02:24.691Z,19.30
2023-03-07T17:04:53.554Z,19.60
2023-03-07T17:07:23.944Z,18.30
2023-03-07T17:09:53.701Z,21.40
2023-03-07T17:12:29.891Z,21.50
2023-03-07T17:15:00.822Z,18.00
2023-03-07T17:17:37.112Z,19.10
2023-03-07T17:20:20.130Z,16.10
2023-03-07T17:22:53.642Z,14.90
2023-03-07T17:25:23.265Z,30.90
2023-03-07T17:28:05.909Z,27.00
2023-03-07T17:30:35.108Z,20.00
2023-03-07T17:33:06.233Z,15.60
2023-03-07T17:35:35.515Z,20.20
2023-03-07T17:38:04.479Z,17.90
2023-03-07T17:40:39.939Z,17.80
2023-03-07T17:43:11.300Z,19.60
2023-03-07T17:45:43.085Z,19.30
2023-03-07T17:48:16.188Z,21.40
2023-03-07T17:50:46.025Z,31.20
2023-03-07T17:53:27.551Z,33.00
2023-03-07T17:56:20.799Z,24.00
2023-03-07T18:02:06.380Z,19.20
2023-03-07T18:04:41.198Z,16.80
2023-03-07T18:07:27.618Z,17.30
2023-03-07T18:10:08.181Z,18.50
2023-03-07T18:12:55.819Z,18.60
2023-03-07T18:15:25.951Z,17.10
2023-03-07T18:17:58.186Z,37.10
2023-03-07T18:20:35.631Z,23.30
2023-03-07T18:23:22.685Z,21.20
2023-03-07T18:26:00.348Z,19.60
2023-03-07T18:28:43.179Z,22.90
2023-03-07T18:31:20.134Z,31.30
2023-03-07T18:33:56.554Z,25.80
2023-03-07T18:36:36.374Z,17.60
2023-03-07T18:39:23.717Z,20.20
2023-03-07T18:42:04.189Z,18.80
2023-03-07T18:44:47.642Z,18.90
2023-03-07T18:47:25.601Z,16.80
2023-03-07T18:50:10.287Z,20.10
2023-03-07T18:52:48.904Z,25.00
2023-03-07T18:55:25.957Z,16.50
2023-03-07T18:58:04.514Z,18.30
2023-03-07T19:00:37.227Z,18.60
2023-03-07T19:03:13.879Z,21.70
2023-03-07T19:05:46.973Z,15.30
2023-03-07T19:08:23.890Z,14.70
2023-03-07T19:11:00.726Z,14.50
2023-03-07T19:13:44.439Z,14.90
2023-03-07T19:16:24.230Z,19.80
2023-03-07T19:18:56.473Z,16.80
2023-03-07T19:21:51.463Z,15.40
2023-03-07T19:24:46.860Z,14.50
2023-03-07T19:27:20.775Z,14.10
2023-03-07T19:30:14.766Z,14.80
2023-03-07T19:36:26.834Z,15.70
2023-03-07T19:39:37.903Z,13.40
2023-03-07T19:42:25.597Z,8.20
2023-03-07T19:48:31.003Z,4.50
2023-03-07T19:51:25.612Z,4.30
2023-03-07T19:54:06.826Z,4.20
2023-03-07T19:56:59.775Z,4.20
2023-03-07T19:59:57.716Z,4.40
2023-03-07T20:03:30.227Z,4.70
2023-03-07T20:06:15.205Z,5.20
2023-03-07T20:08:54.139Z,5.90
2023-03-07T20:11:31.432Z,5.20
2023-03-07T20:14:12.592Z,6.00
2023-03-07T20:17:15.052Z,5.30
2023-03-07T20:19:54.871Z,5.60
2023-03-07T20:22:51.436Z,5.20
2023-03-07T20:25:37.657Z,4.90
2023-03-07T20:28:21.009Z,4.00
2023-03-07T20:31:02.479Z,4.40
2023-03-07T20:33:46.820Z,4.10
2023-03-07T20:39:40.272Z,3.90
2023-03-07T20:42:19.182Z,5.00
2023-03-07T20:44:59.761Z,3.70
2023-03-07T20:47:44.827Z,4.10
2023-03-07T20:50:32.995Z,4.70
2023-03-07T20:53:26.688Z,5.50
2023-03-07T20:56:07.639Z,4.30
2023-03-07T20:58:50.205Z,4.50
2023-03-07T21:01:41.723Z,4.30
2023-03-07T21:04:26.968Z,4.80
2023-03-07T21:07:11.529Z,4.00
2023-03-07T21:10:00.539Z,4.40
2023-03-07T21:12:36.218Z,4.40
2023-03-07T21:15:30.168Z,4.50
2023-03-07T21:18:10.196Z,3.70
2023-03-07T21:20:48.433Z,3.70
2023-03-07T21:28:09.781Z,4.90
2023-03-07T21:31:04.923Z,4.10
2023-03-07T21:33:53.550Z,4.20
2023-03-07T21:36:34.562Z,4.40
2023-03-07T21:39:14.164Z,7.50
2023-03-07T21:42:06.161Z,8.90
2023-03-07T21:44:43.295Z,6.70
2023-03-07T21:47:23.342Z,9.30
2023-03-07T21:50:01.993Z,4.90
2023-03-07T21:52:47.749Z,6.50
2023-03-07T21:55:33.518Z,7.40
2023-03-07T21:58:16.034Z,6.50
2023-03-07T22:01:03.090Z,7.20
2023-03-07T22:03:41.426Z,6.90
2023-03-07T22:06:18.244Z,6.80
2023-03-07T22:08:53.009Z,8.60
2023-03-07T22:11:27.022Z,30.60
2023-03-07T22:14:00.622Z,8.90
2023-03-07T22:16:37.207Z,6.20
2023-03-07T22:19:08.605Z,6.80
2023-03-07T22:21:37.157Z,7.20
2023-03-07T22:24:06.104Z,7.20
2023-03-07T22:26:38.283Z,8.30
2023-03-07T22:29:13.591Z,8.80
2023-03-07T22:31:53.031Z,8.40
2023-03-07T22:34:37.162Z,10.20
2023-03-07T22:37:24.908Z,10.40
2023-03-07T22:40:08.981Z,10.90
2023-03-07T22:42:37.891Z,9.60
2023-03-07T22:45:07.786Z,9.40
2023-03-07T22:47:44.686Z,10.20
2023-03-07T22:50:20.304Z,9.80
2023-03-07T22:53:04.141Z,8.70
2023-03-07T22:55:33.455Z,10.30
2023-03-07T23:00:55.369Z,8.40
2023-03-07T23:03:36.518Z,8.60
2023-03-07T23:06:09.259Z,10.60
2023-03-07T23:08:40.184Z,10.70
2023-03-07T23:11:14.164Z,10.50
2023-03-07T23:16:18.237Z,7.90
2023-03-07T23:18:51.114Z,7.70
2023-03-07T23:21:28.922Z,8.00
2023-03-07T23:24:02.949Z,7.60
2023-03-07T23:26:36.626Z,6.90
2023-03-07T23:29:07.379Z,7.50
2023-03-07T23:31:40.578Z,8.70
2023-03-07T23:34:22.831Z,10.10
2023-03-07T23:36:58.454Z,9.00
2023-03-07T23:39:30.989Z,8.30
2023-03-07T23:42:06.370Z,7.80
2023-03-07T23:44:39.569Z,8.80
2023-03-07T23:47:11.781Z,8.90
2023-03-07T23:49:53.860Z,8.60
2023-03-07T23:52:29.512Z,9.00
2023-03-07T23:54:58.980Z,8.00
2023-03-07T23:57:32.872Z,8.50
